WADD/DPS METAR and TAF weather

Enter ICAO airport designator
Station Type Date Time Source
WADD METAR 2020/11/25 22:00 UTC NOAA

WADD 252200Z 33003KT 9999 FEW017 26/23 Q1008 NOSIG


Station Type Date Time Source
WADD Decoded METAR 2020/11/25 22:00 UTC NOAA

Station name not available
Nov 25, 2020 - 05:00 PM EST / 2020.11.25 2200 UTC
Wind: from the NNW (330 degrees) at 3 MPH (3 KT):0
Visibility: greater than 7 mile(s):0
Sky conditions: mostly clear
Temperature: 78 F (26 C)
Dew Point: 73 F (23 C)
Relative Humidity: 83%
Pressure (altimeter): 29.77 in. Hg (1008 hPa)
ob: WADD 252200Z 33003KT 9999 FEW017 26/23 Q1008 NOSIG
cycle: 22

Station Type Date Time Source
WADD TAF 2020/11/25 18:09 UTC NOAA

TAF TAF WADD 251700Z 2518/2618 VRB05KT 9999 SCT016
TEMPO 2520/2600 5000 RA FEW015CB
BECMG 2600/2602 25010KT

Example: see airport list